createdAt,value
2022-12-09T00:00:12.998Z,20.03
2022-12-09T00:02:40.885Z,20.10
2022-12-09T00:05:09.254Z,20.60
2022-12-09T00:07:37.024Z,19.47
2022-12-09T00:10:06.568Z,19.83
2022-12-09T00:12:34.000Z,21.00
2022-12-09T00:15:01.034Z,21.30
2022-12-09T00:17:28.223Z,22.20
2022-12-09T00:19:55.332Z,20.93
2022-12-09T00:22:22.476Z,22.00
2022-12-09T00:24:49.774Z,22.33
2022-12-09T00:27:16.753Z,20.93
2022-12-09T00:29:44.606Z,21.77
2022-12-09T00:32:12.009Z,22.30
2022-12-09T00:34:39.191Z,20.93
2022-12-09T00:37:06.606Z,20.70
2022-12-09T00:39:33.696Z,21.23
2022-12-09T00:42:00.923Z,21.63
2022-12-09T00:44:28.340Z,22.30
2022-12-09T00:46:55.674Z,21.90
2022-12-09T00:49:23.288Z,23.87
2022-12-09T00:51:50.435Z,23.27
2022-12-09T00:54:17.521Z,23.13
2022-12-09T00:56:44.551Z,24.80
2022-12-09T00:59:11.631Z,23.90
2022-12-09T01:01:38.636Z,24.23
2022-12-09T01:04:08.980Z,25.93
2022-12-09T01:06:36.238Z,26.20
2022-12-09T01:09:04.255Z,25.93
2022-12-09T01:11:31.932Z,27.20
2022-12-09T01:14:02.232Z,24.70
2022-12-09T01:16:33.482Z,26.00
2022-12-09T01:19:08.369Z,26.40
2022-12-09T01:21:36.095Z,24.40
2022-12-09T01:24:09.548Z,26.90
2022-12-09T01:26:37.674Z,25.63
2022-12-09T01:29:05.741Z,25.50
2022-12-09T01:31:33.129Z,25.53
2022-12-09T01:34:00.536Z,27.43
2022-12-09T01:36:29.977Z,26.43
2022-12-09T01:38:59.492Z,23.37
2022-12-09T01:41:27.488Z,27.13
2022-12-09T01:44:18.152Z,25.33
2022-12-09T01:46:46.390Z,25.80
2022-12-09T01:49:21.696Z,26.00
2022-12-09T01:52:01.637Z,27.60
2022-12-09T01:54:30.745Z,25.30
2022-12-09T01:56:58.586Z,25.47
2022-12-09T01:59:26.606Z,24.77
2022-12-09T02:02:00.072Z,24.43
2022-12-09T02:04:35.035Z,24.00
2022-12-09T02:07:06.291Z,25.17
2022-12-09T02:09:33.457Z,25.77
2022-12-09T02:12:11.980Z,25.27
2022-12-09T02:14:45.392Z,24.50
2022-12-09T02:17:30.702Z,25.73
2022-12-09T02:20:41.706Z,23.40
2022-12-09T02:23:17.024Z,23.17
2022-12-09T02:25:58.217Z,22.70
2022-12-09T02:29:02.479Z,23.57
2022-12-09T02:31:50.105Z,25.70
2022-12-09T02:34:23.219Z,22.80
2022-12-09T02:37:12.622Z,25.20
2022-12-09T02:39:57.863Z,22.87
2022-12-09T02:42:29.438Z,24.30
2022-12-09T02:44:58.930Z,25.00
2022-12-09T02:47:31.481Z,24.20
2022-12-09T02:50:13.111Z,25.40
2022-12-09T02:52:44.109Z,24.37
2022-12-09T02:55:14.991Z,24.60
2022-12-09T02:57:42.411Z,22.90
2022-12-09T03:00:13.596Z,23.77
2022-12-09T03:02:46.743Z,23.50
2022-12-09T03:05:26.196Z,22.07
2022-12-09T03:08:30.861Z,24.80
2022-12-09T03:11:13.668Z,23.70
2022-12-09T03:14:00.360Z,22.17
2022-12-09T03:16:42.573Z,22.80
2022-12-09T03:19:34.384Z,23.70
2022-12-09T03:22:08.060Z,26.30
2022-12-09T03:24:41.776Z,25.57
2022-12-09T03:27:12.904Z,26.67
2022-12-09T03:29:43.382Z,24.83
2022-12-09T03:32:12.797Z,27.97
2022-12-09T03:34:43.221Z,30.10
2022-12-09T03:37:12.708Z,25.53
2022-12-09T03:39:43.143Z,25.83
2022-12-09T03:42:22.627Z,28.50
2022-12-09T03:44:55.618Z,25.50
2022-12-09T03:47:22.826Z,25.30
2022-12-09T03:49:50.630Z,26.53
2022-12-09T03:52:25.153Z,29.13
2022-12-09T03:55:08.723Z,31.23
2022-12-09T03:57:41.676Z,29.00
2022-12-09T04:00:10.079Z,30.03
2022-12-09T04:02:38.516Z,29.93
2022-12-09T04:05:07.110Z,33.87
2022-12-09T04:07:34.822Z,30.30
2022-12-09T04:10:02.140Z,32.60
2022-12-09T04:12:29.195Z,32.53
2022-12-09T04:14:56.219Z,31.20
2022-12-09T04:17:23.550Z,36.17
2022-12-09T04:19:51.003Z,34.30
2022-12-09T04:22:18.171Z,32.50
2022-12-09T04:24:45.307Z,31.17
2022-12-09T04:27:12.718Z,29.23
2022-12-09T04:29:39.928Z,30.23
2022-12-09T04:32:08.511Z,29.27
2022-12-09T04:34:35.620Z,32.13
2022-12-09T04:37:02.575Z,31.83
2022-12-09T04:39:29.585Z,32.37
2022-12-09T04:41:56.606Z,31.60
2022-12-09T04:44:23.870Z,32.80
2022-12-09T04:46:51.019Z,30.47
2022-12-09T04:49:18.588Z,30.70
2022-12-09T04:51:45.798Z,29.07
2022-12-09T04:54:14.588Z,31.57
2022-12-09T04:56:44.464Z,33.60
2022-12-09T04:59:11.827Z,32.07
2022-12-09T05:01:39.263Z,30.37
2022-12-09T05:04:06.703Z,30.67
2022-12-09T05:06:34.699Z,32.87
2022-12-09T05:09:02.972Z,29.43
2022-12-09T05:11:30.613Z,32.17
2022-12-09T05:13:57.921Z,30.50
2022-12-09T05:16:25.086Z,30.37
2022-12-09T05:18:52.547Z,29.07
2022-12-09T05:21:21.883Z,30.30
2022-12-09T05:23:50.271Z,29.97
2022-12-09T05:26:20.803Z,27.73
2022-12-09T05:28:49.395Z,32.10
2022-12-09T05:31:21.003Z,30.30
2022-12-09T05:33:50.392Z,31.47
2022-12-09T05:36:22.343Z,32.20
2022-12-09T05:38:50.840Z,28.90
2022-12-09T05:41:23.091Z,31.10
2022-12-09T05:43:51.812Z,29.90
2022-12-09T05:46:19.965Z,29.87
2022-12-09T05:48:47.620Z,32.03
2022-12-09T05:51:28.587Z,30.67
2022-12-09T05:54:00.286Z,33.10
2022-12-09T05:56:28.538Z,32.10
2022-12-09T05:58:57.259Z,33.13
2022-12-09T06:01:26.531Z,34.97
2022-12-09T06:03:55.506Z,35.30
2022-12-09T06:06:31.417Z,30.00
2022-12-09T06:09:02.107Z,30.90
2022-12-09T06:11:30.174Z,33.30
2022-12-09T06:13:57.688Z,31.40
2022-12-09T06:16:25.239Z,29.43
2022-12-09T06:18:53.466Z,30.90
2022-12-09T06:21:21.976Z,29.53
2022-12-09T06:23:50.815Z,29.00
2022-12-09T06:26:22.293Z,29.80
2022-12-09T06:28:50.223Z,28.50
2022-12-09T06:31:18.312Z,29.67
2022-12-09T06:33:54.799Z,30.03
2022-12-09T06:36:24.929Z,29.80
2022-12-09T06:38:52.727Z,29.17
2022-12-09T06:41:19.972Z,30.77
2022-12-09T06:43:47.646Z,29.20
2022-12-09T06:46:23.840Z,29.00
2022-12-09T06:48:53.019Z,29.30
2022-12-09T06:51:22.200Z,29.40
2022-12-09T06:53:49.544Z,29.20
2022-12-09T06:56:17.058Z,27.40
2022-12-09T06:58:46.602Z,28.70
2022-12-09T07:01:18.529Z,30.30
2022-12-09T07:03:51.269Z,28.67
2022-12-09T07:06:30.387Z,27.80
2022-12-09T07:09:05.702Z,28.70
2022-12-09T07:11:33.596Z,29.60
2022-12-09T07:14:02.061Z,28.73
2022-12-09T07:16:30.343Z,27.20
2022-12-09T07:18:58.214Z,29.10
2022-12-09T07:21:25.748Z,30.20
2022-12-09T07:23:53.291Z,29.27
2022-12-09T07:26:21.442Z,28.97
2022-12-09T07:28:51.182Z,23.87
2022-12-09T07:31:22.393Z,28.50
2022-12-09T07:33:51.791Z,31.17
2022-12-09T07:36:24.285Z,28.20
2022-12-09T07:39:00.260Z,27.50
2022-12-09T07:41:29.008Z,30.37
2022-12-09T07:43:56.744Z,30.27
2022-12-09T07:46:27.846Z,31.00
2022-12-09T07:48:57.338Z,31.90
2022-12-09T07:51:26.176Z,27.37
2022-12-09T07:53:53.888Z,30.23
2022-12-09T07:56:22.442Z,29.90
2022-12-09T07:58:53.693Z,30.00
2022-12-09T08:01:26.171Z,29.87
2022-12-09T08:03:54.431Z,28.63
2022-12-09T08:06:26.360Z,29.43
2022-12-09T08:08:55.147Z,32.03
2022-12-09T08:11:26.751Z,31.70
2022-12-09T08:13:58.342Z,32.73
2022-12-09T08:16:26.650Z,31.67
2022-12-09T08:18:55.618Z,30.93
2022-12-09T08:21:29.955Z,31.70
2022-12-09T08:24:01.120Z,32.07
2022-12-09T08:26:31.512Z,31.53
2022-12-09T08:28:59.346Z,28.90
2022-12-09T08:31:28.860Z,29.33
2022-12-09T08:33:57.697Z,27.37
2022-12-09T08:36:28.370Z,28.30
2022-12-09T08:38:59.495Z,28.57
2022-12-09T08:41:36.902Z,28.10
2022-12-09T08:44:08.026Z,28.67
2022-12-09T08:46:38.304Z,26.00
2022-12-09T08:49:07.401Z,24.63
2022-12-09T08:51:35.795Z,22.30
2022-12-09T08:54:05.094Z,21.40
2022-12-09T08:56:32.787Z,22.07
2022-12-09T08:59:00.456Z,19.63
2022-12-09T09:01:36.139Z,20.03
2022-12-09T09:04:12.471Z,22.93
2022-12-09T09:06:44.253Z,21.23
2022-12-09T09:09:14.710Z,18.97
2022-12-09T09:11:44.081Z,18.57
2022-12-09T09:14:13.314Z,15.50
2022-12-09T09:16:43.346Z,18.80
2022-12-09T09:19:17.595Z,16.53
2022-12-09T09:21:45.107Z,16.37
2022-12-09T09:24:16.933Z,15.70
2022-12-09T09:26:44.994Z,14.33
2022-12-09T09:29:14.388Z,12.57
2022-12-09T09:31:42.087Z,14.47
2022-12-09T09:34:11.209Z,14.93
2022-12-09T09:36:39.703Z,14.30
2022-12-09T09:39:06.959Z,13.80
2022-12-09T09:41:54.447Z,13.77
2022-12-09T09:44:48.705Z,13.87
2022-12-09T09:47:32.793Z,14.30
2022-12-09T09:50:31.200Z,14.57
2022-12-09T09:52:59.840Z,13.37
2022-12-09T09:55:57.501Z,15.23
2022-12-09T09:59:05.846Z,14.50
2022-12-09T10:01:37.106Z,15.03
2022-12-09T10:05:01.400Z,12.87
2022-12-09T10:07:42.124Z,13.30
2022-12-09T10:10:56.692Z,15.30
2022-12-09T10:13:50.516Z,14.73
2022-12-09T10:16:29.991Z,14.67
2022-12-09T10:19:09.783Z,15.27
2022-12-09T10:21:45.397Z,15.10
2022-12-09T10:24:32.880Z,13.43
2022-12-09T10:27:34.349Z,12.70
2022-12-09T10:30:09.026Z,13.20
2022-12-09T10:32:37.803Z,13.60
2022-12-09T10:35:29.764Z,13.53
2022-12-09T10:38:14.201Z,15.30
2022-12-09T10:40:47.420Z,14.00
2022-12-09T10:43:35.275Z,13.37
2022-12-09T10:46:19.571Z,14.60
2022-12-09T10:48:47.958Z,15.23
2022-12-09T10:51:16.661Z,14.50
2022-12-09T10:54:12.737Z,15.17
2022-12-09T10:57:13.643Z,12.53
2022-12-09T10:59:58.651Z,14.90
2022-12-09T11:02:28.764Z,14.30
2022-12-09T11:05:07.016Z,12.77
2022-12-09T11:07:34.679Z,12.20
2022-12-09T11:10:01.950Z,13.13
2022-12-09T11:12:33.341Z,12.20
2022-12-09T11:15:29.461Z,16.00
2022-12-09T11:18:06.867Z,15.23
2022-12-09T11:20:36.503Z,14.40
2022-12-09T11:23:13.376Z,14.30
2022-12-09T11:25:58.650Z,14.13
2022-12-09T11:28:29.499Z,12.83
2022-12-09T11:31:33.133Z,14.77
2022-12-09T11:34:06.507Z,14.07
2022-12-09T11:36:42.189Z,15.83
2022-12-09T11:39:26.994Z,14.17
2022-12-09T11:42:19.020Z,15.00
2022-12-09T11:45:08.510Z,13.80
2022-12-09T11:48:25.882Z,16.10
2022-12-09T11:50:33.925Z,18.17
2022-12-09T11:53:13.279Z,15.30
2022-12-09T11:56:04.241Z,14.63
2022-12-09T11:58:40.521Z,14.90
2022-12-09T12:01:14.538Z,16.60
2022-12-09T12:03:56.908Z,15.00
2022-12-09T12:06:49.831Z,17.43
2022-12-09T12:09:45.605Z,16.80
2022-12-09T12:12:33.613Z,15.80
2022-12-09T12:15:15.697Z,16.97
2022-12-09T12:17:50.682Z,16.73
2022-12-09T12:20:18.222Z,17.50
2022-12-09T12:22:55.099Z,17.60
2022-12-09T12:25:34.261Z,15.00
2022-12-09T12:28:12.913Z,18.10
2022-12-09T12:31:24.412Z,18.40
2022-12-09T12:34:24.548Z,18.53
2022-12-09T12:37:39.953Z,22.33
2022-12-09T12:40:33.613Z,20.13
2022-12-09T12:43:25.380Z,19.20
2022-12-09T12:46:20.047Z,19.67
2022-12-09T12:49:27.596Z,17.97
2022-12-09T12:52:21.067Z,18.80
2022-12-09T12:55:36.495Z,18.63
2022-12-09T12:58:37.439Z,19.57
2022-12-09T13:01:30.243Z,19.57
2022-12-09T13:04:39.722Z,19.40
2022-12-09T13:07:30.677Z,19.07
2022-12-09T13:10:15.738Z,21.27
2022-12-09T13:12:55.422Z,18.97
2022-12-09T13:15:51.908Z,22.27
2022-12-09T13:18:40.034Z,21.30
2022-12-09T13:21:07.967Z,20.97
2022-12-09T13:24:13.766Z,21.63
2022-12-09T13:26:49.566Z,22.63
2022-12-09T13:29:41.827Z,22.53
2022-12-09T13:32:33.210Z,23.03
2022-12-09T13:35:27.775Z,22.27
2022-12-09T13:37:55.698Z,22.33
2022-12-09T13:40:30.952Z,21.43
2022-12-09T13:43:04.928Z,21.70
2022-12-09T13:45:43.801Z,20.87
2022-12-09T13:48:17.286Z,23.20
2022-12-09T13:50:57.601Z,22.43
2022-12-09T13:53:38.987Z,22.07
2022-12-09T13:56:33.253Z,24.93
2022-12-09T13:59:38.322Z,24.97
2022-12-09T14:02:20.265Z,21.43
2022-12-09T14:05:21.153Z,23.00
2022-12-09T14:08:15.434Z,24.57
2022-12-09T14:10:48.095Z,23.10
2022-12-09T14:13:35.754Z,22.87
2022-12-09T14:16:36.794Z,25.93
2022-12-09T14:19:51.446Z,23.20
2022-12-09T14:22:18.954Z,21.80
2022-12-09T14:24:51.388Z,23.07
2022-12-09T14:27:21.302Z,23.17
2022-12-09T14:30:23.317Z,22.50
2022-12-09T14:32:50.139Z,21.90
2022-12-09T14:36:00.328Z,24.83
2022-12-09T14:39:23.798Z,22.70
2022-12-09T14:41:51.077Z,24.77
2022-12-09T14:44:34.958Z,23.70
2022-12-09T14:47:33.600Z,26.30
2022-12-09T14:50:15.290Z,23.73
2022-12-09T14:53:03.936Z,24.10
2022-12-09T14:55:38.794Z,26.27
2022-12-09T14:58:06.407Z,26.80
2022-12-09T15:00:36.784Z,24.77
2022-12-09T15:03:36.752Z,26.17
2022-12-09T15:06:12.564Z,27.77
2022-12-09T15:08:41.887Z,25.87
2022-12-09T15:11:21.233Z,27.20
2022-12-09T15:13:54.253Z,25.03
2022-12-09T15:16:26.639Z,30.10
2022-12-09T15:18:55.173Z,34.73
2022-12-09T15:21:31.811Z,30.53
2022-12-09T15:24:00.297Z,28.10
2022-12-09T15:26:33.548Z,30.27
2022-12-09T15:29:32.767Z,27.73
2022-12-09T15:32:02.545Z,27.33
2022-12-09T15:34:36.250Z,29.00
2022-12-09T15:37:06.303Z,28.77
2022-12-09T15:39:54.642Z,26.63
2022-12-09T15:42:27.446Z,26.00
2022-12-09T15:45:08.301Z,25.97
2022-12-09T15:47:51.271Z,32.60
2022-12-09T15:50:34.980Z,32.90
2022-12-09T15:53:17.432Z,30.80
2022-12-09T15:55:59.535Z,27.27
2022-12-09T15:58:34.488Z,27.80
2022-12-09T16:01:03.577Z,25.17
2022-12-09T16:03:33.790Z,27.37
2022-12-09T16:06:35.141Z,27.33
2022-12-09T16:09:03.627Z,26.07
2022-12-09T16:11:42.712Z,27.27
2022-12-09T16:14:10.976Z,27.47
2022-12-09T16:16:48.261Z,29.70
2022-12-09T16:19:40.750Z,27.50
2022-12-09T16:22:16.286Z,28.40
2022-12-09T16:25:16.308Z,31.77
2022-12-09T16:27:48.911Z,30.10
2022-12-09T16:30:23.394Z,29.97
2022-12-09T16:32:59.581Z,29.30
2022-12-09T16:35:42.987Z,30.80
2022-12-09T16:38:09.795Z,29.53
2022-12-09T16:40:45.811Z,27.80
2022-12-09T16:43:15.817Z,28.40
2022-12-09T16:45:45.850Z,26.90
2022-12-09T16:48:13.635Z,27.37
2022-12-09T16:50:50.316Z,27.40
2022-12-09T16:53:21.962Z,28.13
2022-12-09T16:55:52.850Z,29.20
2022-12-09T16:58:20.501Z,27.93
2022-12-09T17:00:48.970Z,28.60
2022-12-09T17:03:41.478Z,28.60
2022-12-09T17:06:14.733Z,32.77
2022-12-09T17:08:41.944Z,29.23
2022-12-09T17:11:10.891Z,30.23
2022-12-09T17:13:39.188Z,32.90
2022-12-09T17:16:07.811Z,30.93
2022-12-09T17:18:37.026Z,30.60
2022-12-09T17:21:11.827Z,31.60
2022-12-09T17:23:40.416Z,30.90
2022-12-09T17:26:12.116Z,30.40
2022-12-09T17:28:40.163Z,30.83
2022-12-09T17:31:13.409Z,31.07
2022-12-09T17:33:44.067Z,29.37
2022-12-09T17:36:13.308Z,31.50
2022-12-09T17:38:40.969Z,28.80
2022-12-09T17:41:13.348Z,30.70
2022-12-09T17:43:40.838Z,28.90
2022-12-09T17:46:11.382Z,28.97
2022-12-09T17:48:40.365Z,28.70
2022-12-09T17:51:10.416Z,32.87
2022-12-09T17:53:40.186Z,32.20
2022-12-09T17:56:15.736Z,29.10
2022-12-09T17:58:44.031Z,31.40
2022-12-09T18:01:24.659Z,32.03
2022-12-09T18:03:56.803Z,31.17
2022-12-09T18:06:27.360Z,32.67
2022-12-09T18:08:54.805Z,33.17
2022-12-09T18:11:22.513Z,35.20
2022-12-09T18:13:50.072Z,33.53
2022-12-09T18:16:17.332Z,31.63
2022-12-09T18:18:44.410Z,31.60
2022-12-09T18:21:15.972Z,31.17
2022-12-09T18:23:44.319Z,31.93
2022-12-09T18:26:15.591Z,31.67
2022-12-09T18:28:43.029Z,31.53
2022-12-09T18:31:14.341Z,30.10
2022-12-09T18:33:42.385Z,29.87
2022-12-09T18:36:26.823Z,29.20
2022-12-09T18:38:54.557Z,28.80
2022-12-09T18:41:26.374Z,32.10
2022-12-09T18:43:55.511Z,29.67
2022-12-09T18:46:30.149Z,29.63
2022-12-09T18:49:03.596Z,29.40
2022-12-09T18:51:31.628Z,30.93
2022-12-09T18:54:00.551Z,30.70
2022-12-09T18:56:28.376Z,32.00
2022-12-09T18:59:12.052Z,29.33
2022-12-09T19:01:42.793Z,30.47
2022-12-09T19:04:20.263Z,29.60
2022-12-09T19:06:50.496Z,28.07
2022-12-09T19:09:25.716Z,26.03
2022-12-09T19:11:53.930Z,30.33
2022-12-09T19:14:23.315Z,28.00
2022-12-09T19:16:52.351Z,30.07
2022-12-09T19:19:23.549Z,29.43
2022-12-09T19:21:52.028Z,27.90
2022-12-09T19:24:23.374Z,29.37
2022-12-09T19:26:53.511Z,26.93
2022-12-09T19:29:22.413Z,30.77
2022-12-09T19:31:51.949Z,27.07
2022-12-09T19:34:26.495Z,28.13
2022-12-09T19:36:56.623Z,30.57
2022-12-09T19:39:30.474Z,30.13
2022-12-09T19:41:59.263Z,29.83
2022-12-09T19:44:59.508Z,27.10
2022-12-09T19:47:15.604Z,30.97
2022-12-09T19:49:44.683Z,29.87
2022-12-09T19:52:13.088Z,33.30
2022-12-09T19:54:40.628Z,31.50
2022-12-09T19:57:07.765Z,30.27
2022-12-09T19:59:35.741Z,30.60
2022-12-09T20:02:03.082Z,29.73
2022-12-09T20:07:18.955Z,27.07
2022-12-09T20:09:46.415Z,27.10
2022-12-09T20:12:13.653Z,25.73
2022-12-09T20:14:41.460Z,27.77
2022-12-09T20:17:08.866Z,27.97
2022-12-09T20:19:40.003Z,27.30
2022-12-09T20:22:10.349Z,28.63
2022-12-09T20:24:39.136Z,28.23
2022-12-09T20:27:06.473Z,30.10
2022-12-09T20:29:37.615Z,26.67
2022-12-09T20:32:08.960Z,29.47
2022-12-09T20:34:36.342Z,27.70
2022-12-09T20:37:03.472Z,25.80
2022-12-09T20:39:30.514Z,28.13
2022-12-09T20:42:00.225Z,29.40
2022-12-09T20:44:28.491Z,29.40
2022-12-09T20:46:56.326Z,27.00
2022-12-09T20:49:26.941Z,28.90
2022-12-09T20:51:54.899Z,26.60
2022-12-09T20:54:23.185Z,29.00
2022-12-09T20:56:53.700Z,26.40
2022-12-09T20:59:21.992Z,27.57
2022-12-09T21:01:49.490Z,26.30
2022-12-09T21:04:18.417Z,27.03
2022-12-09T21:06:45.779Z,28.10
2022-12-09T21:09:19.289Z,28.20
2022-12-09T21:11:48.518Z,27.17
2022-12-09T21:14:22.148Z,27.70
2022-12-09T21:16:51.016Z,27.50
2022-12-09T21:19:25.261Z,27.73
2022-12-09T21:21:54.285Z,24.77
2022-12-09T21:24:24.290Z,28.40
2022-12-09T21:26:53.516Z,26.87
2022-12-09T21:29:20.917Z,23.90
2022-12-09T21:31:51.184Z,25.70
2022-12-09T21:34:18.468Z,26.80
2022-12-09T21:36:45.517Z,25.63
2022-12-09T21:39:15.687Z,24.40
2022-12-09T21:41:44.014Z,26.40
2022-12-09T21:44:17.695Z,26.73
2022-12-09T21:46:45.674Z,27.87
2022-12-09T21:49:12.968Z,28.30
2022-12-09T21:51:40.132Z,27.13
2022-12-09T21:54:07.339Z,26.53
2022-12-09T21:56:36.201Z,26.77
2022-12-09T21:59:06.235Z,27.00
2022-12-09T22:01:41.003Z,25.37
2022-12-09T22:04:12.430Z,26.70
2022-12-09T22:06:40.337Z,26.37
2022-12-09T22:09:08.664Z,24.37
2022-12-09T22:11:38.846Z,25.47
2022-12-09T22:14:09.003Z,26.13
2022-12-09T22:16:40.416Z,25.90
2022-12-09T22:19:10.621Z,25.50
2022-12-09T22:21:38.133Z,24.10
2022-12-09T22:24:08.207Z,25.57
2022-12-09T22:26:35.856Z,25.03
2022-12-09T22:29:05.637Z,25.40
2022-12-09T22:31:37.022Z,25.43
2022-12-09T22:34:16.003Z,24.80
2022-12-09T22:36:43.372Z,26.57
2022-12-09T22:39:19.617Z,26.07
2022-12-09T22:41:46.567Z,26.67
2022-12-09T22:44:17.342Z,26.17
2022-12-09T22:46:45.868Z,27.33
2022-12-09T22:49:15.476Z,26.93
2022-12-09T22:51:43.897Z,27.90
2022-12-09T22:54:11.433Z,26.73
2022-12-09T22:56:40.914Z,26.63
2022-12-09T22:59:08.407Z,25.70
2022-12-09T23:01:37.721Z,25.03
2022-12-09T23:04:07.201Z,26.33
2022-12-09T23:06:37.130Z,23.77
2022-12-09T23:09:05.774Z,29.43
2022-12-09T23:11:32.967Z,24.63
2022-12-09T23:14:00.563Z,27.80
2022-12-09T23:16:28.246Z,27.30
2022-12-09T23:18:57.518Z,27.60
2022-12-09T23:21:33.192Z,27.20
2022-12-09T23:24:03.937Z,25.73
2022-12-09T23:26:34.158Z,28.20
2022-12-09T23:29:02.273Z,27.43
2022-12-09T23:31:34.774Z,26.70
2022-12-09T23:34:04.903Z,28.27
2022-12-09T23:36:39.242Z,26.00
2022-12-09T23:39:11.197Z,26.83
2022-12-09T23:41:40.500Z,26.30
2022-12-09T23:44:13.983Z,28.57
2022-12-09T23:46:41.060Z,26.17
2022-12-09T23:49:08.682Z,25.90
2022-12-09T23:51:40.164Z,26.50
2022-12-09T23:54:08.922Z,25.30
2022-12-09T23:56:39.363Z,26.60
2022-12-09T23:59:10.917Z,29.80
